sensor_id;sensor_type;location;lat;lon;timestamp;P1;durP1;ratioP1;P2;durP2;ratioP2
16916;SDS011;8575;52.418;13.492;2022-07-24T00:00:13;1010.85;;;945.00;;
16916;SDS011;8575;52.418;13.492;2022-07-24T00:00:34;1000.00;;;934.65;;
16916;SDS011;8575;52.418;13.492;2022-07-24T00:00:55;1011.80;;;945.78;;
16916;SDS011;8575;52.418;13.492;2022-07-24T00:01:17;1024.47;;;957.78;;
16916;SDS011;8575;52.418;13.492;2022-07-24T00:01:39;1030.15;;;963.15;;
16916;SDS011;8575;52.418;13.492;2022-07-24T00:02:00;1026.50;;;959.75;;
16916;SDS011;8575;52.418;13.492;2022-07-24T00:02:22;1018.08;;;951.67;;
16916;SDS011;8575;52.418;13.492;2022-07-24T00:02:43;1023.30;;;956.70;;
16916;SDS011;8575;52.418;13.492;2022-07-24T00:03:04;1024.13;;;957.53;;
16916;SDS011;8575;52.418;13.492;2022-07-24T00:03:26;1032.60;;;965.63;;
16916;SDS011;8575;52.418;13.492;2022-07-24T00:03:47;1064.70;;;995.92;;
16916;SDS011;8575;52.418;13.492;2022-07-24T00:04:08;1067.40;;;998.40;;
16916;SDS011;8575;52.418;13.492;2022-07-24T00:04:30;1068.18;;;999.05;;
16916;SDS011;8575;52.418;13.492;2022-07-24T00:04:52;1073.97;;;999.90;;
16916;SDS011;8575;52.418;13.492;2022-07-24T00:05:17;1070.28;;;999.90;;
16916;SDS011;8575;52.418;13.492;2022-07-24T00:05:38;1068.82;;;999.60;;
16916;SDS011;8575;52.418;13.492;2022-07-24T00:06:04;1068.53;;;999.33;;
16916;SDS011;8575;52.418;13.492;2022-07-24T00:06:26;1067.28;;;998.08;;
16916;SDS011;8575;52.418;13.492;2022-07-24T00:06:48;1065.97;;;996.90;;
16916;SDS011;8575;52.418;13.492;2022-07-24T00:07:09;1073.70;;;999.90;;
16916;SDS011;8575;52.418;13.492;2022-07-24T00:07:32;1069.55;;;999.80;;
16916;SDS011;8575;52.418;13.492;2022-07-24T00:07:55;1071.53;;;999.90;;
16916;SDS011;8575;52.418;13.492;2022-07-24T00:08:16;1066.72;;;997.53;;
16916;SDS011;8575;52.418;13.492;2022-07-24T00:08:37;1068.20;;;999.00;;
16916;SDS011;8575;52.418;13.492;2022-07-24T00:09:04;1075.35;;;999.90;;
16916;SDS011;8575;52.418;13.492;2022-07-24T00:09:25;1065.00;;;995.88;;
16916;SDS011;8575;52.418;13.492;2022-07-24T00:09:46;1059.88;;;990.95;;
16916;SDS011;8575;52.418;13.492;2022-07-24T00:10:08;1072.75;;;999.90;;
16916;SDS011;8575;52.418;13.492;2022-07-24T00:10:29;1069.15;;;999.78;;
16916;SDS011;8575;52.418;13.492;2022-07-24T00:10:52;1078.57;;;999.90;;
16916;SDS011;8575;52.418;13.492;2022-07-24T00:11:13;1072.45;;;999.90;;
16916;SDS011;8575;52.418;13.492;2022-07-24T00:11:35;1072.70;;;999.90;;
16916;SDS011;8575;52.418;13.492;2022-07-24T00:11:57;1067.78;;;998.53;;
16916;SDS011;8575;52.418;13.492;2022-07-24T00:12:19;1069.20;;;999.67;;
16916;SDS011;8575;52.418;13.492;2022-07-24T00:12:41;1072.70;;;999.90;;
16916;SDS011;8575;52.418;13.492;2022-07-24T00:13:02;1070.82;;;999.90;;
16916;SDS011;8575;52.418;13.492;2022-07-24T00:13:23;1069.05;;;999.70;;
16916;SDS011;8575;52.418;13.492;2022-07-24T00:13:46;1060.50;;;991.47;;
16916;SDS011;8575;52.418;13.492;2022-07-24T00:14:08;1075.07;;;999.90;;
16916;SDS011;8575;52.418;13.492;2022-07-24T00:14:29;1086.75;;;999.90;;
16916;SDS011;8575;52.418;13.492;2022-07-24T00:14:51;1079.40;;;999.90;;
16916;SDS011;8575;52.418;13.492;2022-07-24T00:15:13;1070.90;;;999.90;;
16916;SDS011;8575;52.418;13.492;2022-07-24T00:15:34;1075.72;;;999.90;;
16916;SDS011;8575;52.418;13.492;2022-07-24T00:15:56;1068.78;;;999.50;;
16916;SDS011;8575;52.418;13.492;2022-07-24T00:16:17;1084.43;;;999.90;;
16916;SDS011;8575;52.418;13.492;2022-07-24T00:16:39;1080.25;;;999.90;;
16916;SDS011;8575;52.418;13.492;2022-07-24T00:17:00;1078.63;;;999.90;;
16916;SDS011;8575;52.418;13.492;2022-07-24T00:17:22;1071.47;;;999.90;;
16916;SDS011;8575;52.418;13.492;2022-07-24T00:17:43;1071.43;;;999.90;;
16916;SDS011;8575;52.418;13.492;2022-07-24T00:18:05;1065.88;;;996.55;;
16916;SDS011;8575;52.418;13.492;2022-07-24T00:18:26;1077.88;;;999.90;;
16916;SDS011;8575;52.418;13.492;2022-07-24T00:18:47;1073.60;;;999.90;;
16916;SDS011;8575;52.418;13.492;2022-07-24T00:19:08;1078.60;;;999.90;;
16916;SDS011;8575;52.418;13.492;2022-07-24T00:19:31;1075.05;;;999.90;;
16916;SDS011;8575;52.418;13.492;2022-07-24T00:19:52;1065.70;;;996.42;;
16916;SDS011;8575;52.418;13.492;2022-07-24T00:20:13;1076.97;;;999.90;;
16916;SDS011;8575;52.418;13.492;2022-07-24T00:20:35;1076.22;;;999.90;;
16916;SDS011;8575;52.418;13.492;2022-07-24T00:20:57;1078.82;;;999.90;;
16916;SDS011;8575;52.418;13.492;2022-07-24T00:21:18;1072.40;;;999.90;;
16916;SDS011;8575;52.418;13.492;2022-07-24T00:21:39;1070.47;;;999.90;;
16916;SDS011;8575;52.418;13.492;2022-07-24T00:22:01;1068.25;;;999.00;;
16916;SDS011;8575;52.418;13.492;2022-07-24T00:22:23;1076.95;;;999.90;;
16916;SDS011;8575;52.418;13.492;2022-07-24T00:22:44;1073.82;;;999.90;;
16916;SDS011;8575;52.418;13.492;2022-07-24T00:23:06;1072.60;;;999.90;;
16916;SDS011;8575;52.418;13.492;2022-07-24T00:23:28;1074.18;;;999.90;;
16916;SDS011;8575;52.418;13.492;2022-07-24T00:23:49;1071.20;;;999.90;;
16916;SDS011;8575;52.418;13.492;2022-07-24T00:24:10;1073.53;;;999.90;;
16916;SDS011;8575;52.418;13.492;2022-07-24T00:24:31;1069.38;;;999.65;;
16916;SDS011;8575;52.418;13.492;2022-07-24T00:24:54;1073.78;;;999.90;;
16916;SDS011;8575;52.418;13.492;2022-07-24T00:25:15;1079.93;;;999.90;;
16916;SDS011;8575;52.418;13.492;2022-07-24T00:25:36;1065.57;;;996.38;;
16916;SDS011;8575;52.418;13.492;2022-07-24T00:25:57;1075.22;;;999.90;;
16916;SDS011;8575;52.418;13.492;2022-07-24T00:26:20;1066.82;;;997.63;;
16916;SDS011;8575;52.418;13.492;2022-07-24T00:26:41;1077.53;;;999.90;;
16916;SDS011;8575;52.418;13.492;2022-07-24T00:27:02;1076.97;;;999.90;;
16916;SDS011;8575;52.418;13.492;2022-07-24T00:27:25;1063.43;;;994.28;;
16916;SDS011;8575;52.418;13.492;2022-07-24T00:27:46;1075.22;;;999.90;;
16916;SDS011;8575;52.418;13.492;2022-07-24T00:28:07;1073.28;;;999.90;;
16916;SDS011;8575;52.418;13.492;2022-07-24T00:28:28;1065.45;;;996.25;;
16916;SDS011;8575;52.418;13.492;2022-07-24T00:28:51;1077.32;;;999.90;;
16916;SDS011;8575;52.418;13.492;2022-07-24T00:29:13;1080.55;;;999.90;;
16916;SDS011;8575;52.418;13.492;2022-07-24T00:29:34;1082.47;;;999.90;;
16916;SDS011;8575;52.418;13.492;2022-07-24T00:29:57;1077.43;;;999.90;;
16916;SDS011;8575;52.418;13.492;2022-07-24T00:30:18;1077.80;;;999.90;;
16916;SDS011;8575;52.418;13.492;2022-07-24T00:30:39;1080.13;;;999.90;;
16916;SDS011;8575;52.418;13.492;2022-07-24T00:31:00;1069.72;;;999.85;;
16916;SDS011;8575;52.418;13.492;2022-07-24T00:31:22;1070.80;;;999.90;;
16916;SDS011;8575;52.418;13.492;2022-07-24T00:31:44;1071.13;;;999.90;;
16916;SDS011;8575;52.418;13.492;2022-07-24T00:32:05;1080.75;;;999.90;;
16916;SDS011;8575;52.418;13.492;2022-07-24T00:32:26;1072.53;;;999.90;;
16916;SDS011;8575;52.418;13.492;2022-07-24T00:32:49;1068.32;;;998.75;;
16916;SDS011;8575;52.418;13.492;2022-07-24T00:33:10;1072.30;;;999.90;;
16916;SDS011;8575;52.418;13.492;2022-07-24T00:33:31;1071.68;;;999.90;;
16916;SDS011;8575;52.418;13.492;2022-07-24T00:33:53;1063.45;;;994.35;;
16916;SDS011;8575;52.418;13.492;2022-07-24T00:34:15;1076.20;;;999.90;;
16916;SDS011;8575;52.418;13.492;2022-07-24T00:34:36;1070.47;;;999.78;;
16916;SDS011;8575;52.418;13.492;2022-07-24T00:34:57;1052.72;;;984.28;;
16916;SDS011;8575;52.418;13.492;2022-07-24T00:35:19;1067.00;;;998.03;;
16916;SDS011;8575;52.418;13.492;2022-07-24T00:35:40;1067.70;;;998.70;;
16916;SDS011;8575;52.418;13.492;2022-07-24T00:36:02;1052.53;;;984.22;;
16916;SDS011;8575;52.418;13.492;2022-07-24T00:36:23;1046.63;;;978.60;;
16916;SDS011;8575;52.418;13.492;2022-07-24T00:36:45;1028.72;;;961.95;;
16916;SDS011;8575;52.418;13.492;2022-07-24T00:37:07;998.00;;;932.60;;
16916;SDS011;8575;52.418;13.492;2022-07-24T00:37:28;1028.93;;;962.05;;
16916;SDS011;8575;52.418;13.492;2022-07-24T00:37:49;1036.57;;;969.38;;
16916;SDS011;8575;52.418;13.492;2022-07-24T00:38:11;1051.13;;;982.95;;
16916;SDS011;8575;52.418;13.492;2022-07-24T00:38:33;1074.30;;;999.90;;
16916;SDS011;8575;52.418;13.492;2022-07-24T00:38:54;1076.75;;;999.90;;
16916;SDS011;8575;52.418;13.492;2022-07-24T00:39:15;1074.60;;;999.90;;
16916;SDS011;8575;52.418;13.492;2022-07-24T00:39:37;1076.57;;;999.90;;
16916;SDS011;8575;52.418;13.492;2022-07-24T00:39:58;1068.63;;;999.25;;
16916;SDS011;8575;52.418;13.492;2022-07-24T00:40:20;1082.85;;;999.90;;
16916;SDS011;8575;52.418;13.492;2022-07-24T00:40:41;1089.75;;;999.90;;
16916;SDS011;8575;52.418;13.492;2022-07-24T00:41:04;1075.65;;;999.90;;
16916;SDS011;8575;52.418;13.492;2022-07-24T00:41:25;1076.70;;;999.90;;
16916;SDS011;8575;52.418;13.492;2022-07-24T00:41:47;1085.38;;;999.90;;
16916;SDS011;8575;52.418;13.492;2022-07-24T00:42:08;1079.97;;;999.90;;
16916;SDS011;8575;52.418;13.492;2022-07-24T00:42:31;1077.60;;;999.90;;
16916;SDS011;8575;52.418;13.492;2022-07-24T00:42:53;1085.68;;;999.90;;
16916;SDS011;8575;52.418;13.492;2022-07-24T00:43:15;1092.72;;;999.90;;
16916;SDS011;8575;52.418;13.492;2022-07-24T00:44:20;1093.13;;;999.90;;
16916;SDS011;8575;52.418;13.492;2022-07-24T00:44:43;1091.95;;;999.90;;
16916;SDS011;8575;52.418;13.492;2022-07-24T00:45:04;1090.55;;;999.90;;
16916;SDS011;8575;52.418;13.492;2022-07-24T00:45:27;1092.70;;;999.90;;
16916;SDS011;8575;52.418;13.492;2022-07-24T00:45:48;1093.60;;;999.90;;
16916;SDS011;8575;52.418;13.492;2022-07-24T00:46:11;1092.03;;;999.90;;
16916;SDS011;8575;52.418;13.492;2022-07-24T00:46:33;1096.22;;;999.90;;
16916;SDS011;8575;52.418;13.492;2022-07-24T00:46:55;1097.57;;;999.90;;
16916;SDS011;8575;52.418;13.492;2022-07-24T00:47:16;1100.90;;;999.90;;
16916;SDS011;8575;52.418;13.492;2022-07-24T00:47:38;1101.53;;;999.90;;
16916;SDS011;8575;52.418;13.492;2022-07-24T00:48:01;1104.28;;;999.90;;
16916;SDS011;8575;52.418;13.492;2022-07-24T00:48:23;1108.15;;;999.90;;
16916;SDS011;8575;52.418;13.492;2022-07-24T00:48:44;1108.10;;;999.90;;
16916;SDS011;8575;52.418;13.492;2022-07-24T00:49:07;1111.05;;;999.90;;
16916;SDS011;8575;52.418;13.492;2022-07-24T00:49:29;1110.72;;;999.90;;
16916;SDS011;8575;52.418;13.492;2022-07-24T00:49:51;1112.63;;;999.90;;
16916;SDS011;8575;52.418;13.492;2022-07-24T00:50:12;1110.40;;;999.90;;
16916;SDS011;8575;52.418;13.492;2022-07-24T00:50:40;1112.18;;;999.90;;
16916;SDS011;8575;52.418;13.492;2022-07-24T00:51:02;1109.07;;;999.90;;
16916;SDS011;8575;52.418;13.492;2022-07-24T00:51:23;1109.68;;;999.90;;
16916;SDS011;8575;52.418;13.492;2022-07-24T00:51:57;1108.75;;;999.90;;
16916;SDS011;8575;52.418;13.492;2022-07-24T00:52:18;1109.38;;;999.90;;
16916;SDS011;8575;52.418;13.492;2022-07-24T00:52:40;1108.47;;;999.90;;
16916;SDS011;8575;52.418;13.492;2022-07-24T00:53:01;1109.32;;;999.90;;
16916;SDS011;8575;52.418;13.492;2022-07-24T00:53:23;1108.07;;;999.90;;
16916;SDS011;8575;52.418;13.492;2022-07-24T00:53:45;1109.93;;;999.90;;
16916;SDS011;8575;52.418;13.492;2022-07-24T00:54:07;1108.75;;;999.90;;
16916;SDS011;8575;52.418;13.492;2022-07-24T00:54:29;1107.05;;;999.90;;
16916;SDS011;8575;52.418;13.492;2022-07-24T00:54:50;1109.03;;;999.90;;
16916;SDS011;8575;52.418;13.492;2022-07-24T00:55:13;1108.50;;;999.90;;
16916;SDS011;8575;52.418;13.492;2022-07-24T00:55:34;1105.60;;;999.90;;
16916;SDS011;8575;52.418;13.492;2022-07-24T00:55:55;1107.63;;;999.90;;
16916;SDS011;8575;52.418;13.492;2022-07-24T00:56:18;1108.03;;;999.90;;
16916;SDS011;8575;52.418;13.492;2022-07-24T00:56:40;1108.55;;;999.90;;
16916;SDS011;8575;52.418;13.492;2022-07-24T00:57:02;1110.30;;;999.90;;
16916;SDS011;8575;52.418;13.492;2022-07-24T00:57:23;1111.32;;;999.90;;
16916;SDS011;8575;52.418;13.492;2022-07-24T00:57:45;1105.10;;;999.90;;
16916;SDS011;8575;52.418;13.492;2022-07-24T00:58:09;1107.53;;;999.90;;
16916;SDS011;8575;52.418;13.492;2022-07-24T00:58:30;1111.45;;;999.90;;
16916;SDS011;8575;52.418;13.492;2022-07-24T00:58:52;1108.05;;;999.90;;
16916;SDS011;8575;52.418;13.492;2022-07-24T00:59:13;1109.20;;;999.90;;
16916;SDS011;8575;52.418;13.492;2022-07-24T00:59:37;1110.80;;;999.90;;
16916;SDS011;8575;52.418;13.492;2022-07-24T00:59:58;1108.80;;;999.90;;
16916;SDS011;8575;52.418;13.492;2022-07-24T01:00:20;1108.13;;;999.90;;
16916;SDS011;8575;52.418;13.492;2022-07-24T01:00:44;1110.70;;;999.90;;
16916;SDS011;8575;52.418;13.492;2022-07-24T01:01:06;1108.85;;;999.90;;
16916;SDS011;8575;52.418;13.492;2022-07-24T01:01:27;1107.50;;;999.90;;
16916;SDS011;8575;52.418;13.492;2022-07-24T01:01:49;1110.63;;;999.90;;
16916;SDS011;8575;52.418;13.492;2022-07-24T01:02:10;1110.25;;;999.90;;
16916;SDS011;8575;52.418;13.492;2022-07-24T01:02:32;1108.78;;;999.90;;
16916;SDS011;8575;52.418;13.492;2022-07-24T01:02:54;1110.00;;;999.90;;
16916;SDS011;8575;52.418;13.492;2022-07-24T01:03:16;1109.07;;;999.90;;
16916;SDS011;8575;52.418;13.492;2022-07-24T01:03:37;1106.90;;;999.90;;
16916;SDS011;8575;52.418;13.492;2022-07-24T01:03:58;1101.53;;;999.90;;
16916;SDS011;8575;52.418;13.492;2022-07-24T01:04:20;1106.30;;;999.90;;
16916;SDS011;8575;52.418;13.492;2022-07-24T01:04:42;1106.85;;;999.90;;
16916;SDS011;8575;52.418;13.492;2022-07-24T01:05:04;1109.00;;;999.90;;
16916;SDS011;8575;52.418;13.492;2022-07-24T01:05:25;1109.10;;;999.90;;
16916;SDS011;8575;52.418;13.492;2022-07-24T01:05:48;1103.78;;;999.90;;
16916;SDS011;8575;52.418;13.492;2022-07-24T01:06:09;1101.70;;;999.90;;
16916;SDS011;8575;52.418;13.492;2022-07-24T01:06:31;1105.32;;;999.90;;
16916;SDS011;8575;52.418;13.492;2022-07-24T01:06:52;1106.38;;;999.90;;
16916;SDS011;8575;52.418;13.492;2022-07-24T01:07:14;1107.47;;;999.90;;
16916;SDS011;8575;52.418;13.492;2022-07-24T01:07:36;1108.55;;;999.90;;
16916;SDS011;8575;52.418;13.492;2022-07-24T01:07:57;1105.88;;;999.90;;
16916;SDS011;8575;52.418;13.492;2022-07-24T01:08:20;1106.07;;;999.90;;
16916;SDS011;8575;52.418;13.492;2022-07-24T01:08:43;1105.40;;;999.90;;
16916;SDS011;8575;52.418;13.492;2022-07-24T01:09:04;1106.95;;;999.90;;
16916;SDS011;8575;52.418;13.492;2022-07-24T01:09:25;1104.05;;;999.90;;
16916;SDS011;8575;52.418;13.492;2022-07-24T01:09:47;1105.00;;;999.90;;
16916;SDS011;8575;52.418;13.492;2022-07-24T01:10:09;1105.40;;;999.90;;
16916;SDS011;8575;52.418;13.492;2022-07-24T01:10:30;1106.90;;;999.90;;
16916;SDS011;8575;52.418;13.492;2022-07-24T01:10:51;1105.25;;;999.90;;
16916;SDS011;8575;52.418;13.492;2022-07-24T01:11:13;1105.38;;;999.90;;
16916;SDS011;8575;52.418;13.492;2022-07-24T01:11:35;1107.97;;;999.90;;
16916;SDS011;8575;52.418;13.492;2022-07-24T01:11:56;1107.90;;;999.90;;
16916;SDS011;8575;52.418;13.492;2022-07-24T01:12:18;1104.45;;;999.90;;
16916;SDS011;8575;52.418;13.492;2022-07-24T01:12:40;1104.22;;;999.90;;
16916;SDS011;8575;52.418;13.492;2022-07-24T01:13:03;1109.63;;;999.90;;
16916;SDS011;8575;52.418;13.492;2022-07-24T01:13:24;1107.65;;;999.90;;
16916;SDS011;8575;52.418;13.492;2022-07-24T01:13:46;1100.25;;;999.90;;
16916;SDS011;8575;52.418;13.492;2022-07-24T01:14:07;1110.13;;;999.90;;
16916;SDS011;8575;52.418;13.492;2022-07-24T01:14:30;1111.32;;;999.90;;
16916;SDS011;8575;52.418;13.492;2022-07-24T01:14:54;1106.18;;;999.90;;
16916;SDS011;8575;52.418;13.492;2022-07-24T01:15:16;1106.53;;;999.90;;
16916;SDS011;8575;52.418;13.492;2022-07-24T01:15:37;1105.90;;;999.90;;
16916;SDS011;8575;52.418;13.492;2022-07-24T01:15:58;1102.13;;;999.90;;
16916;SDS011;8575;52.418;13.492;2022-07-24T01:16:21;1101.60;;;999.90;;
16916;SDS011;8575;52.418;13.492;2022-07-24T01:16:42;1100.55;;;999.90;;
16916;SDS011;8575;52.418;13.492;2022-07-24T01:17:04;1093.10;;;999.90;;
16916;SDS011;8575;52.418;13.492;2022-07-24T01:17:28;1084.68;;;999.90;;
16916;SDS011;8575;52.418;13.492;2022-07-24T01:17:51;1086.88;;;999.90;;
16916;SDS011;8575;52.418;13.492;2022-07-24T01:18:12;1093.45;;;999.90;;
16916;SDS011;8575;52.418;13.492;2022-07-24T01:18:33;1096.07;;;999.90;;
16916;SDS011;8575;52.418;13.492;2022-07-24T01:18:54;1101.53;;;999.90;;
16916;SDS011;8575;52.418;13.492;2022-07-24T01:19:17;1097.22;;;999.90;;
16916;SDS011;8575;52.418;13.492;2022-07-24T01:19:38;1092.28;;;999.90;;
16916;SDS011;8575;52.418;13.492;2022-07-24T01:19:59;1089.20;;;999.90;;
16916;SDS011;8575;52.418;13.492;2022-07-24T01:20:20;1090.80;;;999.90;;
16916;SDS011;8575;52.418;13.492;2022-07-24T01:20:46;1087.72;;;999.90;;
16916;SDS011;8575;52.418;13.492;2022-07-24T01:21:07;1092.30;;;999.90;;
16916;SDS011;8575;52.418;13.492;2022-07-24T01:21:29;1093.22;;;999.90;;
16916;SDS011;8575;52.418;13.492;2022-07-24T01:21:51;1098.35;;;999.90;;
16916;SDS011;8575;52.418;13.492;2022-07-24T01:22:14;1093.45;;;999.90;;
16916;SDS011;8575;52.418;13.492;2022-07-24T01:22:35;1096.47;;;999.90;;
16916;SDS011;8575;52.418;13.492;2022-07-24T01:22:57;1098.15;;;999.90;;
16916;SDS011;8575;52.418;13.492;2022-07-24T01:23:18;1096.03;;;999.90;;
16916;SDS011;8575;52.418;13.492;2022-07-24T01:23:39;1096.93;;;999.90;;
16916;SDS011;8575;52.418;13.492;2022-07-24T01:24:02;1097.18;;;999.90;;
16916;SDS011;8575;52.418;13.492;2022-07-24T01:24:23;1097.50;;;999.90;;
16916;SDS011;8575;52.418;13.492;2022-07-24T01:24:44;1095.72;;;999.90;;
16916;SDS011;8575;52.418;13.492;2022-07-24T01:25:06;1097.40;;;999.90;;
16916;SDS011;8575;52.418;13.492;2022-07-24T01:25:27;1096.32;;;999.90;;
16916;SDS011;8575;52.418;13.492;2022-07-24T01:25:52;1093.97;;;999.90;;
16916;SDS011;8575;52.418;13.492;2022-07-24T01:26:13;1096.88;;;999.90;;
16916;SDS011;8575;52.418;13.492;2022-07-24T01:26:34;1096.03;;;999.90;;
16916;SDS011;8575;52.418;13.492;2022-07-24T01:26:55;1097.25;;;999.90;;
16916;SDS011;8575;52.418;13.492;2022-07-24T01:27:18;1090.45;;;999.90;;
16916;SDS011;8575;52.418;13.492;2022-07-24T01:27:39;1095.93;;;999.90;;
16916;SDS011;8575;52.418;13.492;2022-07-24T01:28:00;1099.03;;;999.90;;
16916;SDS011;8575;52.418;13.492;2022-07-24T01:28:21;1091.60;;;999.90;;
16916;SDS011;8575;52.418;13.492;2022-07-24T01:28:43;1093.50;;;999.90;;
16916;SDS011;8575;52.418;13.492;2022-07-24T01:29:05;1092.70;;;999.90;;
16916;SDS011;8575;52.418;13.492;2022-07-24T01:29:26;1095.72;;;999.90;;
16916;SDS011;8575;52.418;13.492;2022-07-24T01:29:47;1095.80;;;999.90;;
16916;SDS011;8575;52.418;13.492;2022-07-24T01:30:09;1097.35;;;999.90;;
16916;SDS011;8575;52.418;13.492;2022-07-24T01:30:31;1097.07;;;999.90;;
16916;SDS011;8575;52.418;13.492;2022-07-24T01:30:53;1092.53;;;999.90;;
16916;SDS011;8575;52.418;13.492;2022-07-24T01:31:14;1090.78;;;999.90;;
16916;SDS011;8575;52.418;13.492;2022-07-24T01:31:36;1089.90;;;999.90;;
16916;SDS011;8575;52.418;13.492;2022-07-24T01:31:58;1089.90;;;999.90;;
16916;SDS011;8575;52.418;13.492;2022-07-24T01:32:19;1088.95;;;999.90;;
16916;SDS011;8575;52.418;13.492;2022-07-24T01:32:40;1094.65;;;999.90;;
16916;SDS011;8575;52.418;13.492;2022-07-24T01:33:03;1092.68;;;999.90;;
16916;SDS011;8575;52.418;13.492;2022-07-24T01:33:24;1092.00;;;999.90;;
16916;SDS011;8575;52.418;13.492;2022-07-24T01:33:45;1095.50;;;999.90;;
16916;SDS011;8575;52.418;13.492;2022-07-24T01:34:07;1098.15;;;999.90;;
16916;SDS011;8575;52.418;13.492;2022-07-24T01:34:28;1094.20;;;999.90;;
16916;SDS011;8575;52.418;13.492;2022-07-24T01:34:50;1094.18;;;999.90;;
16916;SDS011;8575;52.418;13.492;2022-07-24T01:35:11;1092.75;;;999.90;;
16916;SDS011;8575;52.418;13.492;2022-07-24T01:35:32;1092.43;;;999.90;;
16916;SDS011;8575;52.418;13.492;2022-07-24T01:35:55;1095.88;;;999.90;;
16916;SDS011;8575;52.418;13.492;2022-07-24T01:36:18;1090.38;;;999.90;;
16916;SDS011;8575;52.418;13.492;2022-07-24T01:36:39;1070.07;;;999.90;;
16916;SDS011;8575;52.418;13.492;2022-07-24T01:37:03;1073.18;;;999.90;;
16916;SDS011;8575;52.418;13.492;2022-07-24T01:37:24;1075.72;;;999.90;;
16916;SDS011;8575;52.418;13.492;2022-07-24T01:37:47;1080.45;;;999.90;;
16916;SDS011;8575;52.418;13.492;2022-07-24T01:38:08;1071.15;;;999.90;;
16916;SDS011;8575;52.418;13.492;2022-07-24T01:38:29;1064.40;;;995.67;;
16916;SDS011;8575;52.418;13.492;2022-07-24T01:38:50;1052.10;;;984.08;;
16916;SDS011;8575;52.418;13.492;2022-07-24T01:39:13;1084.13;;;999.90;;
16916;SDS011;8575;52.418;13.492;2022-07-24T01:39:34;1090.78;;;999.90;;
16916;SDS011;8575;52.418;13.492;2022-07-24T01:39:55;1093.32;;;999.90;;
16916;SDS011;8575;52.418;13.492;2022-07-24T01:40:16;1092.70;;;999.90;;
16916;SDS011;8575;52.418;13.492;2022-07-24T01:40:38;1092.35;;;999.90;;
16916;SDS011;8575;52.418;13.492;2022-07-24T01:41:00;1090.97;;;999.90;;
16916;SDS011;8575;52.418;13.492;2022-07-24T01:41:21;1092.68;;;999.90;;
16916;SDS011;8575;52.418;13.492;2022-07-24T01:41:42;1097.40;;;999.90;;
16916;SDS011;8575;52.418;13.492;2022-07-24T01:42:03;1093.85;;;999.90;;
16916;SDS011;8575;52.418;13.492;2022-07-24T01:42:26;1098.03;;;999.90;;
16916;SDS011;8575;52.418;13.492;2022-07-24T01:42:47;1102.68;;;999.90;;
16916;SDS011;8575;52.418;13.492;2022-07-24T01:43:08;1105.03;;;999.90;;
16916;SDS011;8575;52.418;13.492;2022-07-24T01:43:29;1100.05;;;999.90;;
16916;SDS011;8575;52.418;13.492;2022-07-24T01:43:51;1100.50;;;999.90;;
16916;SDS011;8575;52.418;13.492;2022-07-24T01:44:13;1097.32;;;999.90;;
16916;SDS011;8575;52.418;13.492;2022-07-24T01:44:34;1099.30;;;999.90;;
16916;SDS011;8575;52.418;13.492;2022-07-24T01:44:55;1097.32;;;999.90;;
16916;SDS011;8575;52.418;13.492;2022-07-24T01:45:17;1098.57;;;999.90;;
16916;SDS011;8575;52.418;13.492;2022-07-24T01:45:39;1097.35;;;999.90;;
16916;SDS011;8575;52.418;13.492;2022-07-24T01:46:00;1096.20;;;999.90;;
16916;SDS011;8575;52.418;13.492;2022-07-24T01:46:22;1092.35;;;999.90;;
16916;SDS011;8575;52.418;13.492;2022-07-24T01:46:44;1093.35;;;999.90;;
16916;SDS011;8575;52.418;13.492;2022-07-24T01:47:05;1097.07;;;999.90;;
16916;SDS011;8575;52.418;13.492;2022-07-24T01:47:26;1097.00;;;999.90;;
16916;SDS011;8575;52.418;13.492;2022-07-24T01:47:49;1092.32;;;999.90;;
16916;SDS011;8575;52.418;13.492;2022-07-24T01:48:10;1092.63;;;999.90;;
16916;SDS011;8575;52.418;13.492;2022-07-24T01:48:31;1094.43;;;999.90;;
16916;SDS011;8575;52.418;13.492;2022-07-24T01:48:53;1095.75;;;999.90;;
16916;SDS011;8575;52.418;13.492;2022-07-24T01:49:15;1098.90;;;999.90;;
16916;SDS011;8575;52.418;13.492;2022-07-24T01:49:36;1097.50;;;999.90;;
16916;SDS011;8575;52.418;13.492;2022-07-24T01:49:57;1097.40;;;999.90;;
16916;SDS011;8575;52.418;13.492;2022-07-24T01:50:19;1095.80;;;999.90;;
16916;SDS011;8575;52.418;13.492;2022-07-24T01:50:41;1090.38;;;999.90;;
16916;SDS011;8575;52.418;13.492;2022-07-24T01:51:04;1097.10;;;999.90;;
16916;SDS011;8575;52.418;13.492;2022-07-24T01:51:25;1096.80;;;999.90;;
16916;SDS011;8575;52.418;13.492;2022-07-24T01:51:46;1097.25;;;999.90;;
16916;SDS011;8575;52.418;13.492;2022-07-24T01:52:09;1097.18;;;999.90;;
16916;SDS011;8575;52.418;13.492;2022-07-24T01:52:30;1093.70;;;999.90;;
16916;SDS011;8575;52.418;13.492;2022-07-24T01:52:51;1096.25;;;999.90;;
16916;SDS011;8575;52.418;13.492;2022-07-24T01:53:13;1094.90;;;999.90;;
16916;SDS011;8575;52.418;13.492;2022-07-24T01:53:39;1100.07;;;999.90;;
16916;SDS011;8575;52.418;13.492;2022-07-24T01:54:05;1099.55;;;999.90;;
16916;SDS011;8575;52.418;13.492;2022-07-24T01:54:26;1095.57;;;999.90;;
16916;SDS011;8575;52.418;13.492;2022-07-24T01:54:47;1083.22;;;999.90;;
16916;SDS011;8575;52.418;13.492;2022-07-24T01:55:09;1082.97;;;999.90;;
16916;SDS011;8575;52.418;13.492;2022-07-24T01:55:31;1088.57;;;999.90;;
16916;SDS011;8575;52.418;13.492;2022-07-24T01:55:52;1066.97;;;998.20;;
16916;SDS011;8575;52.418;13.492;2022-07-24T01:56:13;1034.57;;;967.47;;
16916;SDS011;8575;52.418;13.492;2022-07-24T01:56:36;1035.53;;;968.45;;
16916;SDS011;8575;52.418;13.492;2022-07-24T01:56:57;1050.40;;;982.40;;
16916;SDS011;8575;52.418;13.492;2022-07-24T01:57:18;1053.15;;;984.92;;
16916;SDS011;8575;52.418;13.492;2022-07-24T01:57:41;1078.78;;;999.90;;
16916;SDS011;8575;52.418;13.492;2022-07-24T01:58:02;1070.20;;;999.90;;
16916;SDS011;8575;52.418;13.492;2022-07-24T01:58:23;1054.97;;;986.90;;
16916;SDS011;8575;52.418;13.492;2022-07-24T01:58:44;1059.88;;;991.53;;
16916;SDS011;8575;52.418;13.492;2022-07-24T01:59:07;1052.88;;;984.78;;
16916;SDS011;8575;52.418;13.492;2022-07-24T01:59:28;1047.40;;;979.55;;
16916;SDS011;8575;52.418;13.492;2022-07-24T01:59:49;1048.97;;;981.07;;
16916;SDS011;8575;52.418;13.492;2022-07-24T02:00:11;1055.97;;;987.78;;
16916;SDS011;8575;52.418;13.492;2022-07-24T02:00:36;1053.85;;;985.67;;
16916;SDS011;8575;52.418;13.492;2022-07-24T02:00:58;1048.25;;;980.35;;
16916;SDS011;8575;52.418;13.492;2022-07-24T02:01:20;1047.32;;;979.40;;
16916;SDS011;8575;52.418;13.492;2022-07-24T02:01:42;1056.97;;;988.75;;
16916;SDS011;8575;52.418;13.492;2022-07-24T02:02:03;1057.35;;;989.15;;
16916;SDS011;8575;52.418;13.492;2022-07-24T02:02:24;1055.60;;;987.38;;
16916;SDS011;8575;52.418;13.492;2022-07-24T02:02:45;1045.25;;;977.65;;